Archival Weather

Agadez

Agadez, Niger (DRZA)

Report from: Thursday, September 21, 2023 2:00 PM WAT
Current time: Friday, February 23, 2024 8:54 PM WAT

Current weather – Weather history – Daily summaries
Weather forecast

Temperature40.0°C (104.0°F)
Heat index38.2°C (100.7°F)
Dew point9.0°C (48.2°F)
Winds 4 kts (2.1 m/s, 4.6 mph) West-Southwest (240°)
Clouds Sky clear
Altimeter29.83 in.Hg (1010 mB)
Relative humidity16 %
Density altitude3,083 ft. (940 m)
Remarks Ceiling and visibility OK
Flight conditions Visual Meteorological Conditions
Raw dataDRZA 211300Z 24004KT CAVOK 40/09 Q1010
An error has occurred. This application may no longer respond until reloaded. Reload 🗙